Station Historical Data
Daily Summary for August 6, 2017 Units:  English    Metric   Both
« Previous Day
Next Day »
Daily Weekly Monthly Yearly Custom
  High: Low: Average:
Temperature: 88.8 °F 66.5 °F 75.9 °F
Dew Point: 72.9 °F 59.8 °F 67.1 °F
Humidity: 93% 54% 75%
Wind Speed: 1.0mph 0.0mph 0mph
Wind Gust: 3.0mph - -
Wind- - WNW
Pressure: 30.10 in 29.99 in -
Precipitation: 0.37 in    
Historical Graphs
 
 
Tabular Data for August 6, 2017
Time Temperature Dew Point Pressure Wind Wind Speed Wind Gust Humidity Rainfall Rate (Hourly) solar Conditions
00:00 71.4 °F 62.3 °F 30.05 in Calm     73% 0.00 in WeatherDisplay:10.37 W/m2 FEW
00:05 71.2 °F 60.5 °F 30.05 in Calm     69% 0.00 in WeatherDisplay:10.37 W/m2 FEW
00:10 71.1 °F 60.4 °F 30.05 in Calm     69% 0.00 in WeatherDisplay:10.37 W/m2 FEW
00:15 71.1 °F 60.8 °F 30.05 in Calm     70% 0.00 in WeatherDisplay:10.37 W/m2 FEW
00:20 71.1 °F 60.4 °F 30.05 in Calm     69% 0.00 in WeatherDisplay:10.37 W/m2 CLR
00:25 71.0 °F 60.3 °F 30.04 in Calm     69% 0.00 in WeatherDisplay:10.37 W/m2 CLR
00:30 71.0 °F 61.1 °F 30.04 in Calm     71% 0.00 in WeatherDisplay:10.37 W/m2 CLR
00:35 71.0 °F 61.5 °F 30.04 in Calm     72% 0.00 in WeatherDisplay:10.37 W/m2 CLR
00:40 70.9 °F 61.8 °F 30.04 in Calm     73% 0.00 in WeatherDisplay:10.37 W/m2 CLR
00:45 70.7 °F 61.6 °F 30.04 in Calm     73% 0.00 in WeatherDisplay:10.37 W/m2 CLR
00:50 70.7 °F 61.6 °F 30.04 in Calm     73% 0.00 in WeatherDisplay:10.37 W/m2 CLR
00:55 70.6 °F 62.3 °F 30.04 in Calm     75% 0.00 in WeatherDisplay:10.37 W/m2 CLR
01:00 70.5 °F 62.2 °F 30.04 in Calm     75% 0.00 in WeatherDisplay:10.37 W/m2 CLR
01:10 70.3 °F 62.4 °F 30.04 in Calm     76% 0.00 in WeatherDisplay:10.37 W/m2 CLR
01:15 70.2 °F 62.3 °F 30.04 in Calm     76% 0.00 in WeatherDisplay:10.37 W/m2 CLR
01:20 69.9 °F 62.4 °F 30.04 in Calm     77% 0.00 in WeatherDisplay:10.37 W/m2 CLR
01:25 69.8 °F 62.6 °F 30.04 in Calm     78% 0.00 in WeatherDisplay:10.37 W/m2 CLR
01:30 69.7 °F 62.5 °F 30.04 in Calm     78% 0.00 in WeatherDisplay:10.37 W/m2 CLR
01:35 69.6 °F 62.4 °F 30.04 in Calm     78% 0.00 in WeatherDisplay:10.37 W/m2 CLR
01:40 69.6 °F 62.4 °F 30.04 in Calm     78% 0.00 in WeatherDisplay:10.37 W/m2 CLR
01:45 69.6 °F 62.8 °F 30.04 in Calm     79% 0.00 in WeatherDisplay:10.37 W/m2 CLR
01:50 69.6 °F 62.8 °F 30.03 in Calm     79% 0.00 in WeatherDisplay:10.37 W/m2 CLR
01:55 69.6 °F 62.4 °F 30.03 in Calm     78% 0.00 in WeatherDisplay:10.37 W/m2 CLR
02:00 69.4 °F 61.9 °F 30.03 in Calm     77% 0.00 in WeatherDisplay:10.37 W/m2 CLR
02:05 69.4 °F 61.1 °F 30.03 in Calm     75% 0.00 in WeatherDisplay:10.37 W/m2 CLR
02:15 69.4 °F 60.8 °F 30.03 in Calm     74% 0.00 in WeatherDisplay:10.37 W/m2 CLR
02:20 69.6 °F 60.9 °F 30.03 in Calm     74% 0.00 in WeatherDisplay:10.37 W/m2 BKN
02:25 69.7 °F 61.0 °F 30.03 in Calm     74% 0.00 in WeatherDisplay:10.37 W/m2 BKN
02:35 69.6 °F 60.2 °F 30.03 in Calm     72% 0.00 in WeatherDisplay:10.37 W/m2 BKN
02:40 69.6 °F 59.8 °F 30.03 in Calm     71% 0.00 in WeatherDisplay:10.37 W/m2 BKN
02:45 69.7 °F 59.9 °F 30.03 in Calm     71% 0.00 in WeatherDisplay:10.37 W/m2 BKN
02:50 69.8 °F 60.8 °F 30.03 in Calm     73% 0.00 in WeatherDisplay:10.37 W/m2 BKN
02:55 69.8 °F 60.7 °F 30.03 in Calm     73% 0.00 in WeatherDisplay:10.37 W/m2 BKN
03:00 69.7 °F 60.3 °F 30.03 in Calm     72% 0.00 in WeatherDisplay:10.37 W/m2 BKN
03:05 69.7 °F 61.0 °F 30.03 in Calm     74% 0.00 in WeatherDisplay:10.37 W/m2 BKN
03:10 69.6 °F 60.6 °F 30.03 in Calm     73% 0.00 in WeatherDisplay:10.37 W/m2 BKN
03:15 69.6 °F 60.6 °F 30.04 in Calm     73% 0.00 in WeatherDisplay:10.37 W/m2 BKN
03:20 69.5 °F 61.2 °F 30.04 in Calm     75% 0.00 in WeatherDisplay:10.37 W/m2 FEW
03:25 69.4 °F 61.5 °F 30.04 in Calm     76% 0.00 in WeatherDisplay:10.37 W/m2 FEW
03:30 69.3 °F 61.8 °F 30.04 in Calm     77% 0.00 in WeatherDisplay:10.37 W/m2 FEW
03:40 69.1 °F 61.9 °F 30.04 in Calm     78% 0.00 in WeatherDisplay:10.37 W/m2 FEW
03:45 69.0 °F 61.9 °F 30.04 in Calm     78% 0.00 in WeatherDisplay:10.37 W/m2 FEW
03:55 68.9 °F 61.8 °F 30.04 in Calm     78% 0.00 in WeatherDisplay:10.37 W/m2 FEW
04:00 68.8 °F 60.9 °F 30.03 in Calm     76% 0.00 in WeatherDisplay:10.37 W/m2 FEW
04:10 68.8 °F 60.9 °F 30.03 in Calm     76% 0.00 in WeatherDisplay:10.37 W/m2 FEW
04:15 68.8 °F 61.7 °F 30.03 in Calm     78% 0.00 in WeatherDisplay:10.37 W/m2 FEW
04:20 68.7 °F 61.6 °F 30.03 in Calm     78% 0.00 in WeatherDisplay:10.37 W/m2 SCT
04:25 68.6 °F 60.7 °F 30.03 in Calm     76% 0.00 in WeatherDisplay:10.37 W/m2 SCT
04:30 68.6 °F 61.1 °F 30.03 in Calm     77% 0.00 in WeatherDisplay:10.37 W/m2 SCT
04:35 68.6 °F 61.5 °F 30.04 in Calm     78% 0.00 in WeatherDisplay:10.37 W/m2 SCT
04:45 68.5 °F 61.0 °F 30.04 in Calm     77% 0.00 in WeatherDisplay:10.37 W/m2 SCT
04:55 68.4 °F 60.5 °F 30.05 in Calm     76% 0.00 in WeatherDisplay:10.37 W/m2 SCT
05:00 68.4 °F 60.9 °F 30.05 in Calm     77% 0.00 in WeatherDisplay:10.37 W/m2 SCT
05:05 68.4 °F 60.5 °F 30.05 in Calm   1.0 mph 76% 0.00 in WeatherDisplay:10.37 W/m2 SCT
05:10 68.3 °F 60.8 °F 30.05 in Calm     77% 0.00 in WeatherDisplay:10.37 W/m2 SCT
05:15 68.3 °F 61.2 °F 30.05 in Calm     78% 0.00 in WeatherDisplay:10.37 W/m2 SCT
05:20 68.1 °F 61.0 °F 30.05 in Calm     78% 0.00 in WeatherDisplay:10.37 W/m2 CLR
05:25 68.0 °F 61.2 °F 30.05 in Calm     79% 0.00 in WeatherDisplay:10.37 W/m2 CLR
05:30 67.9 °F 60.8 °F 30.05 in Calm     78% 0.00 in WeatherDisplay:10.37 W/m2 CLR
05:35 67.9 °F 61.1 °F 30.05 in Calm     79% 0.00 in WeatherDisplay:10.37 W/m2 CLR
05:40 67.9 °F 61.5 °F 30.05 in Calm     80% 0.00 in WeatherDisplay:10.37 W/m2 CLR
05:45 67.8 °F 61.4 °F 30.05 in Calm     80% 0.00 in WeatherDisplay:10.37 W/m2 CLR
05:50 67.6 °F 61.2 °F 30.05 in Calm     80% 0.00 in WeatherDisplay:10.37 W/m2 CLR
05:55 67.5 °F 61.5 °F 30.05 in Calm     81% 0.00 in WeatherDisplay:10.37 W/m2 CLR
06:00 67.5 °F 61.8 °F 30.05 in Calm     82% 0.00 in WeatherDisplay:10.37 W/m2 CLR
06:10 67.2 °F 61.5 °F 30.06 in Calm     82% 0.00 in WeatherDisplay:10.37 W/m2 CLR
06:15 67.1 °F 61.4 °F 30.06 in Calm     82% 0.00 in WeatherDisplay:10.37 W/m2 CLR
06:20 67.1 °F 61.8 °F 30.06 in Calm     83% 0.00 in WeatherDisplay:10.37 W/m2 CLR
06:25 67.0 °F 61.7 °F 30.06 in Calm     83% 0.00 in WeatherDisplay:10.37 W/m2 CLR
06:30 66.9 °F 61.6 °F 30.06 in Calm     83% 0.00 in WeatherDisplay:10.37 W/m2 CLR
06:35 66.8 °F 61.8 °F 30.06 in Calm     84% 0.00 in WeatherDisplay:10.37 W/m2 CLR
06:40 66.8 °F 61.8 °F 30.06 in Calm     84% 0.00 in WeatherDisplay:10.37 W/m2 CLR
06:45 66.7 °F 61.7 °F 30.06 in Calm     84% 0.00 in WeatherDisplay:10.37 W/m2 CLR
06:50 66.6 °F 61.3 °F 30.06 in Calm     83% 0.00 in WeatherDisplay:10.37 W/m2 CLR
06:55 66.6 °F 61.3 °F 30.06 in Calm     83% 0.00 in WeatherDisplay:10.37 W/m2 CLR
07:00 66.5 °F 60.8 °F 30.06 in Calm     82% 0.00 in WeatherDisplay:10.37 W/m2 CLR
07:05 66.6 °F 60.9 °F 30.07 in Calm     82% 0.00 in WeatherDisplay:10.37 W/m2 CLR
07:10 66.7 °F 61.4 °F 30.07 in Calm     83% 0.00 in WeatherDisplay:10.37 W/m2 CLR
07:15 66.7 °F 61.4 °F 30.07 in Calm     83% 0.00 in WeatherDisplay:10.37 W/m2 CLR
07:20 66.7 °F 61.1 °F 30.07 in Calm     82% 0.00 in WeatherDisplay:10.37 W/m2 FEW
07:25 66.9 °F 61.5 °F 30.07 in Calm     83% 0.00 in WeatherDisplay:10.37 W/m2 FEW
07:30 67.0 °F 61.7 °F 30.07 in Calm     83% 0.00 in WeatherDisplay:10.37 W/m2 FEW
07:35 67.1 °F 61.7 °F 30.07 in Calm     83% 0.00 in WeatherDisplay:10.37 W/m2 FEW
07:40 67.1 °F 61.8 °F 30.07 in Calm     83% 0.00 in WeatherDisplay:10.37 W/m2 FEW
07:45 67.2 °F 61.9 °F 30.07 in Calm     83% 0.00 in WeatherDisplay:10.37 W/m2 FEW
07:50 67.3 °F 62.0 °F 30.07 in Calm     83% 0.00 in WeatherDisplay:10.37 W/m2 FEW
07:55 67.6 °F 62.2 °F 30.07 in Calm     83% 0.00 in WeatherDisplay:10.37 W/m2 FEW
08:00 67.8 °F 62.4 °F 30.07 in Calm     83% 0.00 in WeatherDisplay:10.37 W/m2 FEW
08:05 68.0 °F 62.7 °F 30.08 in Calm     83% 0.00 in WeatherDisplay:10.37 W/m2 FEW
08:10 68.3 °F 63.0 °F 30.08 in Calm     83% 0.00 in WeatherDisplay:10.37 W/m2 FEW
08:15 68.7 °F 63.3 °F 30.08 in Calm     83% 0.00 in WeatherDisplay:10.37 W/m2 FEW
08:20 69.1 °F 63.7 °F 30.09 in Calm     83% 0.00 in WeatherDisplay:10.37 W/m2 FEW
08:25 69.7 °F 64.3 °F 30.09 in Calm     83% 0.00 in WeatherDisplay:10.37 W/m2 FEW
08:30 70.2 °F 64.1 °F 30.09 in Calm     81% 0.00 in WeatherDisplay:10.37 W/m2 FEW
08:35 70.7 °F 63.9 °F 30.09 in Calm   1.0 mph 79% 0.00 in WeatherDisplay:10.37 W/m2 FEW
08:40 71.2 °F 64.0 °F 30.09 in Calm   1.0 mph 78% 0.00 in WeatherDisplay:10.37 W/m2 FEW
08:45 71.6 °F 64.0 °F 30.09 in Calm   1.0 mph 77% 0.00 in WeatherDisplay:10.37 W/m2 FEW
08:50 72.0 °F 64.8 °F 30.10 in Calm     78% 0.00 in WeatherDisplay:10.37 W/m2 FEW
08:55 72.2 °F 64.2 °F 30.09 in Calm   1.0 mph 76% 0.00 in WeatherDisplay:10.37 W/m2 FEW
09:00 72.4 °F 64.4 °F 30.09 in Calm   1.0 mph 76% 0.00 in WeatherDisplay:10.37 W/m2 FEW
09:10 73.2 °F 64.5 °F 30.09 in Calm   1.0 mph 74% 0.00 in WeatherDisplay:10.37 W/m2 FEW
09:15 73.6 °F 64.4 °F 30.09 in Calm   1.0 mph 73% 0.00 in WeatherDisplay:10.37 W/m2 FEW
09:20 74.0 °F 64.0 °F 30.09 in Calm     71% 0.00 in WeatherDisplay:10.37 W/m2 FEW
09:25 74.6 °F 65.4 °F 30.09 in Calm   1.0 mph 73% 0.00 in WeatherDisplay:10.37 W/m2 FEW
09:30 75.2 °F 65.1 °F 30.09 in Calm     71% 0.00 in WeatherDisplay:10.37 W/m2 SCT
09:35 75.6 °F 64.7 °F 30.09 in Calm   1.0 mph 69% 0.00 in WeatherDisplay:10.37 W/m2 SCT
09:40 75.9 °F 64.6 °F 30.08 in Calm   1.0 mph 68% 0.00 in WeatherDisplay:10.37 W/m2 SCT
09:45 76.2 °F 64.9 °F 30.08 in Calm   1.0 mph 68% 0.00 in WeatherDisplay:10.37 W/m2 SCT
09:50 76.6 °F 65.7 °F 30.08 in Calm   1.0 mph 69% 0.00 in WeatherDisplay:10.37 W/m2 BKN
09:55 76.8 °F 65.4 °F 30.08 in Calm   1.0 mph 68% 0.00 in WeatherDisplay:10.37 W/m2 BKN
10:00 77.0 °F 65.2 °F 30.08 in Calm   1.0 mph 67% 0.00 in WeatherDisplay:10.37 W/m2 BKN
10:05 77.2 °F 65.8 °F 30.08 in Calm     68% 0.00 in WeatherDisplay:10.37 W/m2 BKN
10:10 77.7 °F 66.7 °F 30.08 in Calm   1.0 mph 69% 0.00 in WeatherDisplay:10.37 W/m2 BKN
10:15 78.1 °F 66.7 °F 30.08 in Calm   1.0 mph 68% 0.00 in WeatherDisplay:10.37 W/m2 BKN
10:20 78.5 °F 67.1 °F 30.08 in Calm   1.0 mph 68% 0.00 in WeatherDisplay:10.37 W/m2 SCT
10:25 78.9 °F 67.9 °F 30.08 in Calm   1.0 mph 69% 0.00 in WeatherDisplay:10.37 W/m2 SCT
10:30 79.3 °F 67.8 °F 30.08 in Calm   1.0 mph 68% 0.00 in WeatherDisplay:10.37 W/m2 SCT
10:35 79.8 °F 68.3 °F 30.07 in Calm   1.0 mph 68% 0.00 in WeatherDisplay:10.37 W/m2 SCT
10:40 80.1 °F 69.0 °F 30.07 in Calm   1.0 mph 69% 0.00 in WeatherDisplay:10.37 W/m2 SCT
10:45 80.4 °F 68.4 °F 30.07 in Calm   1.0 mph 67% 0.00 in WeatherDisplay:10.37 W/m2 SCT
10:50 80.6 °F 69.1 °F 30.07 in Calm   1.0 mph 68% 0.00 in WeatherDisplay:10.37 W/m2 SCT
10:55 80.7 °F 68.7 °F 30.07 in Calm   1.0 mph 67% 0.00 in WeatherDisplay:10.37 W/m2 SCT
11:00 80.8 °F 69.2 °F 30.07 in Calm     68% 0.00 in WeatherDisplay:10.37 W/m2 SCT
11:05 81.0 °F 69.4 °F 30.08 in Calm   1.0 mph 68% 0.00 in WeatherDisplay:10.37 W/m2 SCT
11:10 81.3 °F 69.3 °F 30.07 in Calm     67% 0.00 in WeatherDisplay:10.37 W/m2 SCT
11:15 81.6 °F 70.5 °F 30.07 in Calm   1.0 mph 69% 0.00 in WeatherDisplay:10.37 W/m2 SCT
11:20 81.9 °F 70.3 °F 30.07 in Calm   1.0 mph 68% 0.00 in WeatherDisplay:10.37 W/m2 FEW
11:30 82.5 °F 71.3 °F 30.06 in Calm   1.0 mph 69% 0.00 in WeatherDisplay:10.37 W/m2 FEW
11:40 82.8 °F 70.7 °F 30.06 in Calm   1.0 mph 67% 0.00 in WeatherDisplay:10.37 W/m2 FEW
11:45 82.9 °F 71.2 °F 30.06 in Calm   2.0 mph 68% 0.00 in WeatherDisplay:10.37 W/m2 FEW
11:50 82.9 °F 71.2 °F 30.06 in Calm   1.0 mph 68% 0.00 in WeatherDisplay:10.37 W/m2 FEW
11:55 83.0 °F 70.9 °F 30.06 in Calm     67% 0.00 in WeatherDisplay:10.37 W/m2 FEW
12:00 83.1 °F 71.9 °F 30.06 in Calm     69% 0.00 in WeatherDisplay:10.37 W/m2 FEW
12:05 82.9 °F 70.8 °F 30.06 in Calm     67% 0.00 in WeatherDisplay:10.37 W/m2 FEW
12:10 83.3 °F 71.2 °F 30.06 in Calm     67% 0.00 in WeatherDisplay:10.37 W/m2 FEW
12:15 83.6 °F 71.0 °F 30.06 in Calm   1.0 mph 66% 0.00 in WeatherDisplay:10.37 W/m2 FEW
12:20 84.1 °F 72.0 °F 30.06 in Calm   2.0 mph 67% 0.00 in WeatherDisplay:10.37 W/m2 SCT
12:25 84.6 °F 71.1 °F 30.06 in WSW 1.0 mph 1.0 mph 64% 0.00 in WeatherDisplay:10.37 W/m2 SCT
12:30 84.6 °F 71.1 °F 30.06 in Calm   2.0 mph 64% 0.00 in WeatherDisplay:10.37 W/m2 SCT
12:35 85.1 °F 71.5 °F 30.05 in Calm   1.0 mph 64% 0.00 in WeatherDisplay:10.37 W/m2 SCT
12:40 86.0 °F 71.5 °F 30.05 in Calm   1.0 mph 62% 0.00 in WeatherDisplay:10.37 W/m2 SCT
12:45 86.4 °F 71.4 °F 30.05 in Calm     61% 0.00 in WeatherDisplay:10.37 W/m2 SCT
12:55 86.6 °F 72.5 °F 30.05 in NW 1.0 mph 2.0 mph 63% 0.00 in WeatherDisplay:10.37 W/m2 SCT
13:00 86.9 °F 72.3 °F 30.05 in Calm   2.0 mph 62% 0.00 in WeatherDisplay:10.37 W/m2 SCT
13:05 86.4 °F 71.3 °F 30.05 in Calm   1.0 mph 61% 0.00 in WeatherDisplay:10.37 W/m2 SCT
13:15 86.5 °F 71.9 °F 30.04 in WNW 1.0 mph 2.0 mph 62% 0.00 in WeatherDisplay:10.37 W/m2 SCT
13:20 86.2 °F 71.2 °F 30.04 in Calm   1.0 mph 61% 0.00 in WeatherDisplay:10.37 W/m2 BKN
13:25 85.7 °F 71.2 °F 30.05 in Calm   1.0 mph 62% 0.00 in WeatherDisplay:10.37 W/m2 BKN
13:30 85.4 °F 71.4 °F 30.05 in Calm   1.0 mph 63% 0.00 in WeatherDisplay:10.37 W/m2 BKN
13:35 85.1 °F 72.0 °F 30.04 in Calm   1.0 mph 65% 0.00 in WeatherDisplay:10.37 W/m2 BKN
13:40 84.9 °F 71.8 °F 30.04 in Calm   1.0 mph 65% 0.00 in WeatherDisplay:10.37 W/m2 BKN
13:45 84.6 °F 71.0 °F 30.04 in Calm   1.0 mph 64% 0.00 in WeatherDisplay:10.37 W/m2 BKN
13:50 84.2 °F 72.1 °F 30.04 in Calm   1.0 mph 67% 0.00 in WeatherDisplay:10.37 W/m2 BKN
13:55 84.0 °F 72.8 °F 30.04 in Calm   1.0 mph 69% 0.00 in WeatherDisplay:10.37 W/m2 BKN
14:00 84.3 °F 71.7 °F 30.04 in Calm   1.0 mph 66% 0.00 in WeatherDisplay:10.37 W/m2 BKN
14:05 84.8 °F 71.8 °F 30.04 in Calm   1.0 mph 65% 0.00 in WeatherDisplay:10.37 W/m2 BKN
14:10 85.8 °F 71.3 °F 30.04 in Calm   1.0 mph 62% 0.00 in WeatherDisplay:10.37 W/m2 BKN
14:15 86.2 °F 71.7 °F 30.03 in Calm     62% 0.00 in WeatherDisplay:10.37 W/m2 BKN
14:20 86.6 °F 72.5 °F 30.03 in Calm   1.0 mph 63% 0.00 in WeatherDisplay:10.37 W/m2 BKN
14:25 86.9 °F 71.3 °F 30.03 in Calm   2.0 mph 60% 0.00 in WeatherDisplay:10.37 W/m2 BKN
14:30 87.0 °F 70.9 °F 30.03 in Calm   1.0 mph 59% 0.00 in WeatherDisplay:10.37 W/m2 BKN
14:35 87.1 °F 72.5 °F 30.02 in Calm   1.0 mph 62% 0.00 in WeatherDisplay:10.37 W/m2 BKN
14:40 87.5 °F 72.4 °F 30.02 in Calm   1.0 mph 61% 0.00 in WeatherDisplay:10.37 W/m2 BKN
14:50 87.9 °F 70.2 °F 30.01 in West 1.0 mph 2.0 mph 56% 0.00 in WeatherDisplay:10.37 W/m2 BKN
15:00 88.5 °F 70.8 °F 30.01 in Calm   1.0 mph 56% 0.00 in WeatherDisplay:10.37 W/m2 BKN
15:05 88.8 °F 70.0 °F 30.01 in Calm   1.0 mph 54% 0.00 in WeatherDisplay:10.37 W/m2 BKN
15:10 88.4 °F 70.7 °F 30.01 in Calm   1.0 mph 56% 0.00 in WeatherDisplay:10.37 W/m2 BKN
15:15 88.3 °F 70.1 °F 30.01 in Calm     55% 0.00 in WeatherDisplay:10.37 W/m2 BKN
15:20 88.6 °F 70.4 °F 30.00 in Calm     55% 0.00 in WeatherDisplay:10.37 W/m2 BKN
15:25 88.6 °F 70.9 °F 30.00 in Calm     56% 0.00 in WeatherDisplay:10.37 W/m2 BKN
15:30 88.5 °F 71.3 °F 30.01 in Calm   1.0 mph 57% 0.00 in WeatherDisplay:10.37 W/m2 BKN
15:40 86.1 °F 70.6 °F 30.01 in Calm   2.0 mph 60% 0.00 in WeatherDisplay:10.37 W/m2 BKN
15:45 85.0 °F 70.0 °F 30.00 in NW 1.0 mph 3.0 mph 61% 0.00 in WeatherDisplay:10.37 W/m2 BKN
15:50 84.1 °F 69.7 °F 30.00 in NW 1.0 mph 3.0 mph 62% 0.00 in WeatherDisplay:10.37 W/m2 BKN
15:55 83.4 °F 70.0 °F 30.00 in Calm   2.0 mph 64% 0.00 in WeatherDisplay:10.37 W/m2 BKN
16:00 83.2 °F 70.2 °F 30.00 in Calm   3.0 mph 65% 0.00 in WeatherDisplay:10.37 W/m2 BKN
16:05 82.7 °F 70.2 °F 30.00 in Calm   2.0 mph 66% 0.00 in WeatherDisplay:10.37 W/m2 BKN
16:10 82.6 °F 70.1 °F 30.00 in Calm   1.0 mph 66% 0.00 in WeatherDisplay:10.37 W/m2 BKN
16:15 82.6 °F 70.1 °F 30.00 in Calm   2.0 mph 66% 0.00 in WeatherDisplay:10.37 W/m2 BKN
16:20 82.9 °F 70.3 °F 30.00 in Calm   1.0 mph 66% 0.00 in WeatherDisplay:10.37 W/m2 BKN
16:25 83.4 °F 70.4 °F 29.99 in Calm   2.0 mph 65% 0.00 in WeatherDisplay:10.37 W/m2 BKN
16:30 83.5 °F 70.0 °F 30.00 in Calm   2.0 mph 64% 0.00 in WeatherDisplay:10.37 W/m2 BKN
16:35 83.3 °F 70.3 °F 30.00 in Calm   1.0 mph 65% 0.00 in WeatherDisplay:10.37 W/m2 BKN
16:40 83.6 °F 71.5 °F 29.99 in Calm   1.0 mph 67% 0.00 in WeatherDisplay:10.37 W/m2 BKN
16:45 84.1 °F 72.0 °F 29.99 in Calm   1.0 mph 67% 0.00 in WeatherDisplay:10.37 W/m2 BKN
16:50 84.5 °F 71.4 °F 29.99 in WNW 1.0 mph 3.0 mph 65% 0.00 in WeatherDisplay:10.37 W/m2 BKN
16:55 84.8 °F 71.7 °F 29.99 in Calm   2.0 mph 65% 0.00 in WeatherDisplay:10.37 W/m2 BKN
17:00 85.2 °F 72.6 °F 29.99 in Calm   1.0 mph 66% 0.00 in WeatherDisplay:10.37 W/m2 BKN
17:05 85.4 °F 72.3 °F 29.99 in Calm   1.0 mph 65% 0.00 in WeatherDisplay:10.37 W/m2 BKN
17:10 84.7 °F 71.7 °F 29.99 in Calm   2.0 mph 65% 0.00 in WeatherDisplay:10.37 W/m2 BKN
17:15 84.1 °F 70.6 °F 30.00 in Calm   2.0 mph 64% 0.00 in WeatherDisplay:10.37 W/m2 BKN
17:20 83.8 °F 70.8 °F 30.00 in Calm   1.0 mph 65% 0.00 in WeatherDisplay:10.37 W/m2 BKN
17:25 83.5 °F 71.4 °F 30.00 in Calm   1.0 mph 67% 0.00 in WeatherDisplay:10.37 W/m2 BKN
17:30 83.3 °F 71.2 °F 30.00 in Calm   1.0 mph 67% 0.00 in WeatherDisplay:10.37 W/m2 BKN
17:35 83.1 °F 71.4 °F 29.99 in NNW 1.0 mph 2.0 mph 68% 0.00 in WeatherDisplay:10.37 W/m2 BKN
17:45 82.8 °F 71.6 °F 29.99 in Calm   1.0 mph 69% 0.00 in WeatherDisplay:10.37 W/m2 BKN
17:50 82.6 °F 71.8 °F 29.99 in Calm   1.0 mph 70% 0.00 in WeatherDisplay:10.37 W/m2 BKN
17:55 82.4 °F 72.0 °F 29.99 in Calm   1.0 mph 71% 0.00 in WeatherDisplay:10.37 W/m2 BKN
18:00 82.3 °F 71.9 °F 30.00 in Calm     71% 0.00 in WeatherDisplay:10.37 W/m2 BKN
18:05 82.2 °F 71.4 °F 30.00 in Calm   1.0 mph 70% 0.00 in WeatherDisplay:10.37 W/m2 BKN
18:10 82.1 °F 71.3 °F 30.01 in Calm   1.0 mph 70% 0.00 in WeatherDisplay:10.37 W/m2 BKN
18:15 82.1 °F 71.7 °F 30.01 in Calm   1.0 mph 71% 0.00 in WeatherDisplay:10.37 W/m2 BKN
18:20 82.1 °F 71.8 °F 30.00 in Calm   1.0 mph 71% 0.00 in WeatherDisplay:10.37 W/m2 BKN
18:25 82.3 °F 72.0 °F 30.00 in Calm     71% 0.00 in WeatherDisplay:10.37 W/m2 BKN
18:30 82.4 °F 72.0 °F 30.00 in Calm   1.0 mph 71% 0.00 in WeatherDisplay:10.37 W/m2 BKN
18:35 82.4 °F 72.0 °F 29.99 in Calm     71% 0.00 in WeatherDisplay:10.37 W/m2 BKN
18:40 82.3 °F 71.9 °F 29.99 in Calm     71% 0.00 in WeatherDisplay:10.37 W/m2 BKN
18:45 82.1 °F 72.2 °F 29.99 in Calm     72% 0.00 in WeatherDisplay:10.37 W/m2 BKN
18:50 82.1 °F 72.2 °F 29.99 in Calm     72% 0.00 in WeatherDisplay:10.37 W/m2 BKN
18:55 82.2 °F 72.7 °F 29.99 in Calm   1.0 mph 73% 0.00 in WeatherDisplay:10.37 W/m2 BKN
19:00 82.0 °F 72.9 °F 29.99 in Calm     74% 0.00 in WeatherDisplay:10.37 W/m2 BKN
19:05 81.9 °F 72.4 °F 30.00 in Calm     73% 0.00 in WeatherDisplay:10.37 W/m2 BKN
19:10 81.7 °F 72.6 °F 30.00 in Calm     74% 0.00 in WeatherDisplay:10.37 W/m2 BKN
19:15 81.5 °F 72.4 °F 30.00 in Calm     74% 0.00 in WeatherDisplay:10.37 W/m2 BKN
19:20 81.4 °F 72.3 °F 30.00 in Calm     74% 0.00 in WeatherDisplay:10.37 W/m2 BKN
19:25 81.2 °F 72.2 °F 30.00 in Calm     74% 0.00 in WeatherDisplay:10.37 W/m2 BKN
19:30 81.1 °F 72.4 °F 30.00 in Calm     75% 0.00 in WeatherDisplay:10.37 W/m2 BKN
19:40 80.7 °F 72.4 °F 30.00 in Calm     76% 0.00 in WeatherDisplay:10.37 W/m2 BKN
19:45 80.6 °F 72.3 °F 30.00 in Calm     76% 0.00 in WeatherDisplay:10.37 W/m2 BKN
19:50 80.5 °F 72.2 °F 30.00 in Calm     76% 0.00 in WeatherDisplay:10.37 W/m2 BKN
19:55 80.4 °F 72.1 °F 30.00 in Calm     76% 0.00 in WeatherDisplay:10.37 W/m2 BKN
20:00 80.3 °F 72.0 °F 29.99 in Calm     76% 0.00 in WeatherDisplay:10.37 W/m2 BKN
20:05 80.1 °F 72.2 °F 30.00 in Calm     77% 0.00 in WeatherDisplay:10.37 W/m2 BKN
20:10 80.0 °F 72.1 °F 30.00 in Calm     77% 0.00 in WeatherDisplay:10.37 W/m2 BKN
20:15 79.9 °F 72.4 °F 30.02 in Calm   2.0 mph 78% 0.00 in WeatherDisplay:10.37 W/m2 BKN
20:20 79.2 °F 70.2 °F 30.02 in NW 1.0 mph 2.0 mph 74% 0.00 in WeatherDisplay:10.37 W/m2 OVC
20:25 77.3 °F 70.6 °F 30.02 in Calm   2.0 mph 80% 0.23 in WeatherDisplay:10.37 W/m2 RA
20:30 75.3 °F 69.8 °F 30.02 in Calm   1.0 mph 83% 0.10 in WeatherDisplay:10.37 W/m2 RA
20:35 74.1 °F 69.6 °F 30.02 in Calm     86% 0.01 in WeatherDisplay:10.37 W/m2 OVC
20:40 73.4 °F 69.3 °F 30.02 in Calm     87% 0.00 in WeatherDisplay:10.37 W/m2 OVC
20:45 72.8 °F 69.0 °F 30.02 in Calm     88% 0.00 in WeatherDisplay:10.37 W/m2 OVC
20:50 72.5 °F 69.1 °F 30.02 in Calm     89% 0.00 in WeatherDisplay:10.37 W/m2 OVC
20:55 72.3 °F 68.9 °F 30.02 in Calm     89% 0.01 in WeatherDisplay:10.37 W/m2 OVC
21:00 72.1 °F 69.0 °F 30.02 in Calm     90% 0.00 in WeatherDisplay:10.37 W/m2 OVC
21:05 72.0 °F 68.9 °F 30.03 in Calm     90% 0.00 in WeatherDisplay:10.37 W/m2 OVC
21:10 72.0 °F 69.2 °F 30.03 in Calm     91% 0.00 in WeatherDisplay:10.37 W/m2 OVC
21:15 71.9 °F 69.1 °F 30.03 in Calm     91% 0.00 in WeatherDisplay:10.37 W/m2 OVC
21:20 71.9 °F 69.1 °F 30.04 in Calm     91% 0.00 in WeatherDisplay:10.37 W/m2 OVC
21:25 71.9 °F 69.1 °F 30.04 in Calm     91% 0.00 in WeatherDisplay:10.37 W/m2 OVC
21:30 71.9 °F 69.1 °F 30.04 in Calm     91% 0.00 in WeatherDisplay:10.37 W/m2 OVC
21:35 71.8 °F 69.0 °F 30.04 in Calm     91% 0.00 in WeatherDisplay:10.37 W/m2 OVC
21:40 71.7 °F 68.9 °F 30.04 in Calm     91% 0.00 in WeatherDisplay:10.37 W/m2 OVC
21:45 71.7 °F 69.3 °F 30.04 in Calm     92% 0.00 in WeatherDisplay:10.37 W/m2 OVC
21:50 71.7 °F 69.2 °F 30.04 in Calm     92% 0.00 in WeatherDisplay:10.37 W/m2 OVC
21:55 71.6 °F 69.2 °F 30.04 in Calm     92% 0.00 in WeatherDisplay:10.37 W/m2 OVC
22:00 71.6 °F 69.2 °F 30.04 in Calm     92% 0.00 in WeatherDisplay:10.37 W/m2 OVC
22:05 71.7 °F 69.2 °F 30.04 in Calm     92% 0.00 in WeatherDisplay:10.37 W/m2 OVC
22:10 71.7 °F 69.3 °F 30.04 in Calm     92% 0.00 in WeatherDisplay:10.37 W/m2 OVC
22:15 71.8 °F 69.3 °F 30.04 in Calm     92% 0.00 in WeatherDisplay:10.37 W/m2 OVC
22:20 71.8 °F 69.3 °F 30.04 in Calm     92% 0.00 in WeatherDisplay:10.37 W/m2 BKN
22:25 71.8 °F 69.4 °F 30.05 in Calm     92% 0.00 in WeatherDisplay:10.37 W/m2 BKN
22:35 72.0 °F 69.5 °F 30.05 in Calm     92% 0.00 in WeatherDisplay:10.37 W/m2 -RA
22:40 72.0 °F 69.5 °F 30.05 in Calm     92% 0.00 in WeatherDisplay:10.37 W/m2 -RA
22:45 72.0 °F 69.5 °F 30.05 in Calm     92% 0.00 in WeatherDisplay:10.37 W/m2 -RA
22:50 72.0 °F 69.9 °F 30.04 in Calm     93% 0.00 in WeatherDisplay:10.37 W/m2 -RA
22:55 72.0 °F 69.9 °F 30.04 in Calm     93% 0.00 in WeatherDisplay:10.37 W/m2 -RA
23:00 72.1 °F 70.0 °F 30.04 in Calm     93% 0.00 in WeatherDisplay:10.37 W/m2 -RA
23:05 72.1 °F 70.0 °F 30.05 in Calm     93% 0.01 in WeatherDisplay:10.37 W/m2 -RA
23:10 72.2 °F 70.1 °F 30.05 in Calm     93% 0.00 in WeatherDisplay:10.37 W/m2 -RA
23:15 72.2 °F 70.1 °F 30.04 in Calm     93% 0.00 in WeatherDisplay:10.37 W/m2 -RA
23:20 72.2 °F 70.0 °F 30.05 in Calm     93% 0.00 in WeatherDisplay:10.37 W/m2 BKN
23:25 72.2 °F 70.1 °F 30.05 in Calm     93% 0.00 in WeatherDisplay:10.37 W/m2 BKN
23:30 72.2 °F 70.1 °F 30.05 in Calm     93% 0.00 in WeatherDisplay:10.37 W/m2 BKN
23:35 72.2 °F 70.1 °F 30.04 in Calm     93% 0.00 in WeatherDisplay:10.37 W/m2 BKN
23:40 72.3 °F 70.1 °F 30.04 in Calm     93% 0.00 in WeatherDisplay:10.37 W/m2 BKN
23:45 72.3 °F 70.2 °F 30.04 in Calm     93% 0.00 in WeatherDisplay:10.37 W/m2 BKN
23:50 72.5 °F 70.4 °F 30.04 in Calm     93% 0.00 in WeatherDisplay:10.37 W/m2 BKN
23:55 72.6 °F 70.4 °F 30.04 in Calm     93% 0.00 in WeatherDisplay:10.37 W/m2 BKN
Piedmont Bend
Compliments of Weather Underground - 4 mb